sensor_id;sensor_type;location;lat;lon;timestamp;pressure;altitude;pressure_sealevel;temperature;humidity
829;BME280;396;52.558;13.188;2023-04-26T00:02:16;100837.06;;;5.55;77.98
829;BME280;396;52.558;13.188;2023-04-26T00:04:43;100831.09;;;5.48;78.87
829;BME280;396;52.558;13.188;2023-04-26T00:07:11;100835.38;;;5.49;78.66
829;BME280;396;52.558;13.188;2023-04-26T00:09:40;100833.25;;;5.46;78.65
829;BME280;396;52.558;13.188;2023-04-26T00:12:08;100842.91;;;5.47;78.61
829;BME280;396;52.558;13.188;2023-04-26T00:14:37;100835.97;;;5.51;78.23
829;BME280;396;52.558;13.188;2023-04-26T00:17:04;100836.97;;;5.40;78.88
829;BME280;396;52.558;13.188;2023-04-26T00:19:31;100844.19;;;5.34;79.86
829;BME280;396;52.558;13.188;2023-04-26T00:21:57;100839.63;;;5.40;79.87
829;BME280;396;52.558;13.188;2023-04-26T00:24:24;100835.91;;;5.41;79.76
829;BME280;396;52.558;13.188;2023-04-26T00:26:53;100844.19;;;5.34;80.14
829;BME280;396;52.558;13.188;2023-04-26T00:29:19;100842.31;;;5.35;80.08
829;BME280;396;52.558;13.188;2023-04-26T00:31:47;100847.66;;;5.29;79.95
829;BME280;396;52.558;13.188;2023-04-26T00:34:14;100835.47;;;5.17;80.91
829;BME280;396;52.558;13.188;2023-04-26T00:36:41;100847.00;;;5.12;81.87
829;BME280;396;52.558;13.188;2023-04-26T00:39:07;100839.50;;;5.14;81.68
829;BME280;396;52.558;13.188;2023-04-26T00:41:34;100845.38;;;5.11;81.91
829;BME280;396;52.558;13.188;2023-04-26T00:44:01;100834.13;;;5.14;82.22
829;BME280;396;52.558;13.188;2023-04-26T00:46:28;100839.75;;;5.13;82.00
829;BME280;396;52.558;13.188;2023-04-26T00:48:56;100847.53;;;5.09;82.61
829;BME280;396;52.558;13.188;2023-04-26T00:51:23;100843.22;;;5.13;81.71
829;BME280;396;52.558;13.188;2023-04-26T00:53:51;100852.91;;;5.09;81.93
829;BME280;396;52.558;13.188;2023-04-26T00:56:17;100844.31;;;5.12;82.13
829;BME280;396;52.558;13.188;2023-04-26T00:58:45;100841.31;;;5.09;82.49
829;BME280;396;52.558;13.188;2023-04-26T01:01:11;100848.03;;;5.06;82.82
829;BME280;396;52.558;13.188;2023-04-26T01:03:38;100845.09;;;5.07;82.62
829;BME280;396;52.558;13.188;2023-04-26T01:06:07;100842.91;;;5.04;83.18
829;BME280;396;52.558;13.188;2023-04-26T01:08:33;100854.22;;;5.06;82.78
829;BME280;396;52.558;13.188;2023-04-26T01:11:00;100850.72;;;5.06;82.70
829;BME280;396;52.558;13.188;2023-04-26T01:13:27;100854.41;;;5.00;83.34
829;BME280;396;52.558;13.188;2023-04-26T01:15:55;100854.69;;;4.98;83.39
829;BME280;396;52.558;13.188;2023-04-26T01:18:22;100856.25;;;4.94;83.50
829;BME280;396;52.558;13.188;2023-04-26T01:20:49;100851.16;;;4.93;83.26
829;BME280;396;52.558;13.188;2023-04-26T01:23:18;100846.31;;;4.95;83.90
829;BME280;396;52.558;13.188;2023-04-26T01:25:45;100856.56;;;4.98;83.91
829;BME280;396;52.558;13.188;2023-04-26T01:28:11;100863.50;;;4.94;84.10
829;BME280;396;52.558;13.188;2023-04-26T01:30:38;100862.41;;;4.90;83.76
829;BME280;396;52.558;13.188;2023-04-26T01:33:05;100859.69;;;4.85;84.73
829;BME280;396;52.558;13.188;2023-04-26T01:35:31;100863.84;;;4.70;85.31
829;BME280;396;52.558;13.188;2023-04-26T01:37:58;100862.28;;;4.74;85.03
829;BME280;396;52.558;13.188;2023-04-26T01:40:26;100867.34;;;4.71;85.44
829;BME280;396;52.558;13.188;2023-04-26T01:42:53;100866.84;;;4.74;85.49
829;BME280;396;52.558;13.188;2023-04-26T01:45:19;100869.25;;;4.75;85.42
829;BME280;396;52.558;13.188;2023-04-26T01:47:46;100869.75;;;4.72;85.85
829;BME280;396;52.558;13.188;2023-04-26T01:50:12;100874.31;;;4.72;85.37
829;BME280;396;52.558;13.188;2023-04-26T01:52:39;100869.72;;;4.67;85.39
829;BME280;396;52.558;13.188;2023-04-26T01:55:07;100868.09;;;4.66;85.37
829;BME280;396;52.558;13.188;2023-04-26T01:57:35;100874.53;;;4.65;86.13
829;BME280;396;52.558;13.188;2023-04-26T02:00:01;100874.81;;;4.69;86.20
829;BME280;396;52.558;13.188;2023-04-26T02:02:29;100863.25;;;4.63;85.94
829;BME280;396;52.558;13.188;2023-04-26T02:04:55;100872.63;;;4.61;86.45
829;BME280;396;52.558;13.188;2023-04-26T02:07:22;100874.47;;;4.60;87.29
829;BME280;396;52.558;13.188;2023-04-26T02:09:49;100870.41;;;4.52;87.74
829;BME280;396;52.558;13.188;2023-04-26T02:12:15;100878.22;;;4.59;87.56
829;BME280;396;52.558;13.188;2023-04-26T02:14:43;100878.78;;;4.61;86.64
829;BME280;396;52.558;13.188;2023-04-26T02:17:10;100874.97;;;4.52;87.48
829;BME280;396;52.558;13.188;2023-04-26T02:19:37;100867.94;;;4.51;88.03
829;BME280;396;52.558;13.188;2023-04-26T02:22:04;100874.13;;;4.51;87.35
829;BME280;396;52.558;13.188;2023-04-26T02:24:32;100880.00;;;4.48;87.40
829;BME280;396;52.558;13.188;2023-04-26T02:26:58;100877.31;;;4.48;87.53
829;BME280;396;52.558;13.188;2023-04-26T02:29:28;100866.03;;;4.46;88.30
829;BME280;396;52.558;13.188;2023-04-26T02:31:56;100879.44;;;4.46;87.92
829;BME280;396;52.558;13.188;2023-04-26T02:34:23;100873.53;;;4.44;88.11
829;BME280;396;52.558;13.188;2023-04-26T02:36:49;100867.84;;;4.41;88.45
829;BME280;396;52.558;13.188;2023-04-26T02:39:16;100868.88;;;4.35;88.98
829;BME280;396;52.558;13.188;2023-04-26T02:41:43;100872.09;;;4.37;88.80
829;BME280;396;52.558;13.188;2023-04-26T02:44:10;100868.06;;;4.34;89.78
829;BME280;396;52.558;13.188;2023-04-26T02:46:36;100876.41;;;4.38;88.82
829;BME280;396;52.558;13.188;2023-04-26T02:49:04;100864.88;;;4.37;89.06
829;BME280;396;52.558;13.188;2023-04-26T02:51:31;100868.88;;;4.35;88.52
829;BME280;396;52.558;13.188;2023-04-26T02:53:58;100865.94;;;4.36;88.59
829;BME280;396;52.558;13.188;2023-04-26T02:56:25;100869.06;;;4.28;88.90
829;BME280;396;52.558;13.188;2023-04-26T02:58:51;100861.78;;;4.23;89.76
829;BME280;396;52.558;13.188;2023-04-26T03:01:18;100871.50;;;4.29;89.23
829;BME280;396;52.558;13.188;2023-04-26T03:03:45;100866.16;;;4.29;89.06
829;BME280;396;52.558;13.188;2023-04-26T03:06:13;100862.84;;;4.22;89.49
829;BME280;396;52.558;13.188;2023-04-26T03:08:39;100869.28;;;4.21;89.82
829;BME280;396;52.558;13.188;2023-04-26T03:11:06;100871.94;;;4.21;90.55
829;BME280;396;52.558;13.188;2023-04-26T03:13:33;100870.06;;;4.22;90.60
829;BME280;396;52.558;13.188;2023-04-26T03:15:59;100866.81;;;4.20;90.10
829;BME280;396;52.558;13.188;2023-04-26T03:18:26;100869.44;;;4.15;90.95
829;BME280;396;52.558;13.188;2023-04-26T03:20:52;100870.41;;;4.25;90.09
829;BME280;396;52.558;13.188;2023-04-26T03:23:20;100873.81;;;4.21;90.13
829;BME280;396;52.558;13.188;2023-04-26T03:25:49;100876.44;;;4.16;90.99
829;BME280;396;52.558;13.188;2023-04-26T03:28:16;100876.69;;;4.14;91.00
829;BME280;396;52.558;13.188;2023-04-26T03:30:43;100877.97;;;4.12;91.10
829;BME280;396;52.558;13.188;2023-04-26T03:33:10;100881.41;;;4.07;90.85
829;BME280;396;52.558;13.188;2023-04-26T03:35:37;100883.13;;;4.13;91.67
829;BME280;396;52.558;13.188;2023-04-26T03:38:04;100877.25;;;4.16;91.20
829;BME280;396;52.558;13.188;2023-04-26T03:40:40;100884.25;;;4.17;90.89
829;BME280;396;52.558;13.188;2023-04-26T03:43:07;100892.81;;;4.19;90.76
829;BME280;396;52.558;13.188;2023-04-26T03:45:34;100894.44;;;4.20;90.55
829;BME280;396;52.558;13.188;2023-04-26T03:48:01;100879.94;;;4.16;91.38
829;BME280;396;52.558;13.188;2023-04-26T03:50:28;100894.06;;;4.12;90.86
829;BME280;396;52.558;13.188;2023-04-26T03:52:54;100892.22;;;4.12;91.14
829;BME280;396;52.558;13.188;2023-04-26T03:55:21;100889.97;;;4.04;91.29
829;BME280;396;52.558;13.188;2023-04-26T03:57:49;100892.13;;;4.07;91.03
829;BME280;396;52.558;13.188;2023-04-26T04:00:18;100895.13;;;4.11;91.17
829;BME280;396;52.558;13.188;2023-04-26T04:02:45;100892.13;;;4.07;90.85
829;BME280;396;52.558;13.188;2023-04-26T04:05:11;100898.88;;;4.10;91.54
829;BME280;396;52.558;13.188;2023-04-26T04:07:38;100894.16;;;4.17;90.95
829;BME280;396;52.558;13.188;2023-04-26T04:10:06;100898.72;;;4.16;90.61
829;BME280;396;52.558;13.188;2023-04-26T04:12:34;100897.81;;;4.11;90.66
829;BME280;396;52.558;13.188;2023-04-26T04:15:02;100899.44;;;4.12;91.01
829;BME280;396;52.558;13.188;2023-04-26T04:17:29;100892.22;;;4.12;90.80
829;BME280;396;52.558;13.188;2023-04-26T04:19:56;100902.94;;;4.12;91.24
829;BME280;396;52.558;13.188;2023-04-26T04:22:22;100909.16;;;4.18;91.06
829;BME280;396;52.558;13.188;2023-04-26T04:24:49;100907.28;;;4.18;91.36
829;BME280;396;52.558;13.188;2023-04-26T04:27:16;100911.03;;;4.17;90.50
829;BME280;396;52.558;13.188;2023-04-26T04:29:43;100902.44;;;4.15;90.75
829;BME280;396;52.558;13.188;2023-04-26T04:32:11;100912.66;;;4.18;90.43
829;BME280;396;52.558;13.188;2023-04-26T04:34:39;100912.91;;;4.17;90.95
829;BME280;396;52.558;13.188;2023-04-26T04:37:06;100915.59;;;4.17;91.42
829;BME280;396;52.558;13.188;2023-04-26T04:39:33;100919.94;;;4.23;90.40
829;BME280;396;52.558;13.188;2023-04-26T04:41:59;100920.75;;;4.23;90.71
829;BME280;396;52.558;13.188;2023-04-26T04:44:26;100918.38;;;4.27;90.19
829;BME280;396;52.558;13.188;2023-04-26T04:46:53;100924.06;;;4.30;89.76
829;BME280;396;52.558;13.188;2023-04-26T04:49:22;100921.38;;;4.30;90.19
829;BME280;396;52.558;13.188;2023-04-26T04:51:49;100927.56;;;4.31;90.57
829;BME280;396;52.558;13.188;2023-04-26T04:54:17;100930.13;;;4.43;89.66
829;BME280;396;52.558;13.188;2023-04-26T04:56:44;100927.47;;;4.48;89.24
829;BME280;396;52.558;13.188;2023-04-26T04:59:10;100939.81;;;4.49;89.30
829;BME280;396;52.558;13.188;2023-04-26T05:01:37;100926.97;;;4.51;89.30
829;BME280;396;52.558;13.188;2023-04-26T05:04:04;100939.59;;;4.55;89.08
829;BME280;396;52.558;13.188;2023-04-26T05:06:33;100934.00;;;4.57;89.08
829;BME280;396;52.558;13.188;2023-04-26T05:09:00;100932.44;;;4.61;88.37
829;BME280;396;52.558;13.188;2023-04-26T05:11:28;100932.44;;;4.61;88.94
829;BME280;396;52.558;13.188;2023-04-26T05:13:55;100933.56;;;4.65;89.02
829;BME280;396;52.558;13.188;2023-04-26T05:16:22;100942.78;;;4.74;88.05
829;BME280;396;52.558;13.188;2023-04-26T05:18:48;100952.19;;;4.77;88.38
829;BME280;396;52.558;13.188;2023-04-26T05:21:15;100941.44;;;4.77;88.51
829;BME280;396;52.558;13.188;2023-04-26T05:23:43;100961.00;;;4.72;88.78
829;BME280;396;52.558;13.188;2023-04-26T05:26:13;100961.69;;;4.90;87.38
829;BME280;396;52.558;13.188;2023-04-26T05:28:40;100960.91;;;4.89;87.81
829;BME280;396;52.558;13.188;2023-04-26T05:31:07;100959.78;;;4.85;88.19
829;BME280;396;52.558;13.188;2023-04-26T05:33:40;100958.72;;;4.86;88.91
829;BME280;396;52.558;13.188;2023-04-26T05:36:07;100963.63;;;4.94;89.34
829;BME280;396;52.558;13.188;2023-04-26T05:38:34;100970.41;;;5.02;88.63
829;BME280;396;52.558;13.188;2023-04-26T05:41:03;100970.31;;;5.19;86.68
829;BME280;396;52.558;13.188;2023-04-26T05:43:30;100965.78;;;5.24;86.67
829;BME280;396;52.558;13.188;2023-04-26T05:45:57;100964.72;;;5.25;87.17
829;BME280;396;52.558;13.188;2023-04-26T05:48:25;100971.78;;;5.37;86.61
829;BME280;396;52.558;13.188;2023-04-26T05:50:52;100975.63;;;5.46;85.91
829;BME280;396;52.558;13.188;2023-04-26T05:53:19;100972.16;;;5.50;85.31
829;BME280;396;52.558;13.188;2023-04-26T05:55:45;100978.72;;;5.65;85.05
829;BME280;396;52.558;13.188;2023-04-26T05:58:14;100976.31;;;5.68;85.01
829;BME280;396;52.558;13.188;2023-04-26T06:00:40;100983.31;;;5.69;85.04
829;BME280;396;52.558;13.188;2023-04-26T06:03:07;100983.63;;;5.78;85.29
829;BME280;396;52.558;13.188;2023-04-26T06:05:35;100990.06;;;5.72;85.06
829;BME280;396;52.558;13.188;2023-04-26T06:08:03;100982.34;;;5.86;84.01
829;BME280;396;52.558;13.188;2023-04-26T06:10:29;100994.25;;;5.95;83.41
829;BME280;396;52.558;13.188;2023-04-26T06:12:56;100980.81;;;5.95;83.58
829;BME280;396;52.558;13.188;2023-04-26T06:15:24;100986.72;;;5.97;82.82
829;BME280;396;52.558;13.188;2023-04-26T06:17:52;100988.63;;;6.01;82.43
829;BME280;396;52.558;13.188;2023-04-26T06:20:18;100984.06;;;6.02;81.80
829;BME280;396;52.558;13.188;2023-04-26T06:22:45;100987.84;;;6.01;82.84
829;BME280;396;52.558;13.188;2023-04-26T06:25:12;100985.75;;;6.13;82.47
829;BME280;396;52.558;13.188;2023-04-26T06:27:39;100986.53;;;6.09;82.43
829;BME280;396;52.558;13.188;2023-04-26T06:30:06;100988.47;;;6.18;82.70
829;BME280;396;52.558;13.188;2023-04-26T06:32:37;100990.44;;;6.33;81.22
829;BME280;396;52.558;13.188;2023-04-26T06:35:04;100988.78;;;6.32;81.23
829;BME280;396;52.558;13.188;2023-04-26T06:37:30;100995.56;;;6.40;80.85
829;BME280;396;52.558;13.188;2023-04-26T06:39:57;100997.16;;;6.41;80.97
829;BME280;396;52.558;13.188;2023-04-26T06:42:24;100993.75;;;6.55;79.92
829;BME280;396;52.558;13.188;2023-04-26T06:44:51;100993.47;;;6.52;80.67
829;BME280;396;52.558;13.188;2023-04-26T06:47:17;100992.97;;;6.65;80.28
829;BME280;396;52.558;13.188;2023-04-26T06:49:45;100987.59;;;6.75;79.01
829;BME280;396;52.558;13.188;2023-04-26T06:52:12;100982.78;;;6.82;78.84
829;BME280;396;52.558;13.188;2023-04-26T06:54:39;100993.56;;;6.93;78.72
829;BME280;396;52.558;13.188;2023-04-26T06:57:05;100994.13;;;7.00;77.13
829;BME280;396;52.558;13.188;2023-04-26T06:59:32;100995.19;;;6.99;77.75
829;BME280;396;52.558;13.188;2023-04-26T07:01:59;100996.81;;;7.00;77.35
829;BME280;396;52.558;13.188;2023-04-26T07:04:27;101005.72;;;7.00;77.45
829;BME280;396;52.558;13.188;2023-04-26T07:06:55;100995.75;;;7.11;76.27
829;BME280;396;52.558;13.188;2023-04-26T07:09:22;100999.00;;;7.18;75.89
829;BME280;396;52.558;13.188;2023-04-26T07:11:48;101003.88;;;7.26;76.70
829;BME280;396;52.558;13.188;2023-04-26T07:14:15;100999.28;;;7.37;74.85
829;BME280;396;52.558;13.188;2023-04-26T07:16:42;101002.25;;;7.46;75.42
829;BME280;396;52.558;13.188;2023-04-26T07:19:09;101010.84;;;7.48;75.17
829;BME280;396;52.558;13.188;2023-04-26T07:21:36;101007.63;;;7.56;73.48
829;BME280;396;52.558;13.188;2023-04-26T07:24:04;101005.22;;;7.54;73.79
829;BME280;396;52.558;13.188;2023-04-26T07:26:33;101006.00;;;7.65;73.20
829;BME280;396;52.558;13.188;2023-04-26T07:29:00;101006.28;;;7.69;73.07
829;BME280;396;52.558;13.188;2023-04-26T07:31:29;101006.81;;;7.76;73.35
829;BME280;396;52.558;13.188;2023-04-26T07:33:55;101008.16;;;7.89;71.66
829;BME280;396;52.558;13.188;2023-04-26T07:36:22;100999.00;;;7.79;71.79
829;BME280;396;52.558;13.188;2023-04-26T07:38:49;101009.72;;;8.00;70.38
829;BME280;396;52.558;13.188;2023-04-26T07:41:17;101017.22;;;8.18;70.75
829;BME280;396;52.558;13.188;2023-04-26T07:43:44;101017.22;;;8.39;70.42
829;BME280;396;52.558;13.188;2023-04-26T07:46:10;101022.34;;;8.25;70.55
829;BME280;396;52.558;13.188;2023-04-26T07:48:37;101019.91;;;8.33;69.36
829;BME280;396;52.558;13.188;2023-04-26T07:51:07;101027.44;;;8.47;69.44
829;BME280;396;52.558;13.188;2023-04-26T07:53:34;101036.03;;;8.54;67.98
829;BME280;396;52.558;13.188;2023-04-26T07:56:03;101033.59;;;8.57;67.33
829;BME280;396;52.558;13.188;2023-04-26T07:58:32;101034.88;;;8.75;65.80
829;BME280;396;52.558;13.188;2023-04-26T08:00:59;101024.06;;;8.75;65.28
829;BME280;396;52.558;13.188;2023-04-26T08:03:25;101027.81;;;8.84;64.89
829;BME280;396;52.558;13.188;2023-04-26T08:05:53;101031.78;;;8.97;63.94
829;BME280;396;52.558;13.188;2023-04-26T08:08:20;101031.84;;;8.87;62.40
829;BME280;396;52.558;13.188;2023-04-26T08:10:47;101044.00;;;8.84;63.54
829;BME280;396;52.558;13.188;2023-04-26T08:13:14;101040.00;;;8.72;66.12
829;BME280;396;52.558;13.188;2023-04-26T08:15:42;101043.06;;;8.55;68.07
829;BME280;396;52.558;13.188;2023-04-26T08:18:09;101048.53;;;8.29;69.39
829;BME280;396;52.558;13.188;2023-04-26T08:20:35;101045.34;;;8.07;70.66
829;BME280;396;52.558;13.188;2023-04-26T08:23:03;101045.59;;;8.00;71.69
829;BME280;396;52.558;13.188;2023-04-26T08:25:30;101038.31;;;8.11;71.59
829;BME280;396;52.558;13.188;2023-04-26T08:27:59;101046.09;;;8.28;69.04
829;BME280;396;52.558;13.188;2023-04-26T08:30:26;101035.81;;;8.35;70.07
829;BME280;396;52.558;13.188;2023-04-26T08:32:55;101044.16;;;8.49;65.47
829;BME280;396;52.558;13.188;2023-04-26T08:35:22;101054.13;;;8.53;65.28
829;BME280;396;52.558;13.188;2023-04-26T08:37:48;101050.88;;;8.56;62.07
829;BME280;396;52.558;13.188;2023-04-26T08:40:21;101049.50;;;8.69;61.17
829;BME280;396;52.558;13.188;2023-04-26T08:42:48;101058.09;;;8.81;61.91
829;BME280;396;52.558;13.188;2023-04-26T08:45:17;101065.06;;;8.88;60.59
829;BME280;396;52.558;13.188;2023-04-26T08:47:47;101053.97;;;8.89;59.53
829;BME280;396;52.558;13.188;2023-04-26T08:50:18;101046.91;;;9.03;59.56
829;BME280;396;52.558;13.188;2023-04-26T08:52:48;101057.94;;;9.12;59.47
829;BME280;396;52.558;13.188;2023-04-26T08:55:16;101054.03;;;9.28;59.71
829;BME280;396;52.558;13.188;2023-04-26T08:57:46;101051.28;;;9.33;58.54
829;BME280;396;52.558;13.188;2023-04-26T09:00:14;101059.94;;;9.35;57.63
829;BME280;396;52.558;13.188;2023-04-26T09:02:45;101051.59;;;9.27;58.72
829;BME280;396;52.558;13.188;2023-04-26T09:05:12;101049.06;;;9.41;57.40
829;BME280;396;52.558;13.188;2023-04-26T09:07:42;101057.84;;;9.22;57.34
829;BME280;396;52.558;13.188;2023-04-26T09:10:11;101055.16;;;9.22;56.55
829;BME280;396;52.558;13.188;2023-04-26T09:12:38;101058.88;;;9.31;56.75
829;BME280;396;52.558;13.188;2023-04-26T09:15:06;101047.53;;;9.29;58.56
829;BME280;396;52.558;13.188;2023-04-26T09:17:34;101052.84;;;9.45;59.85
829;BME280;396;52.558;13.188;2023-04-26T09:20:17;101041.31;;;9.63;59.77
829;BME280;396;52.558;13.188;2023-04-26T09:22:47;101050.69;;;9.76;58.88
829;BME280;396;52.558;13.188;2023-04-26T09:25:16;101047.78;;;9.67;57.85
829;BME280;396;52.558;13.188;2023-04-26T09:27:43;101047.75;;;9.72;57.98
829;BME280;396;52.558;13.188;2023-04-26T09:30:12;101050.13;;;9.79;55.82
829;BME280;396;52.558;13.188;2023-04-26T09:32:49;101049.03;;;9.80;54.86
829;BME280;396;52.558;13.188;2023-04-26T09:35:25;101039.56;;;9.77;55.23
829;BME280;396;52.558;13.188;2023-04-26T09:37:55;101049.69;;;9.96;55.29
829;BME280;396;52.558;13.188;2023-04-26T09:40:24;101050.91;;;10.08;53.33
829;BME280;396;52.558;13.188;2023-04-26T09:42:58;101053.91;;;10.07;53.95
829;BME280;396;52.558;13.188;2023-04-26T09:45:26;101052.88;;;10.03;54.09
829;BME280;396;52.558;13.188;2023-04-26T09:47:53;101051.38;;;9.92;52.04
829;BME280;396;52.558;13.188;2023-04-26T09:50:27;101038.25;;;9.75;52.74
829;BME280;396;52.558;13.188;2023-04-26T10:39:49;101068.63;;;9.96;52.58
829;BME280;396;52.558;13.188;2023-04-26T10:59:23;101062.97;;;10.21;53.53
829;BME280;396;52.558;13.188;2023-04-26T11:01:51;101068.78;;;10.39;54.28
829;BME280;396;52.558;13.188;2023-04-26T11:04:18;101058.81;;;10.58;52.49
829;BME280;396;52.558;13.188;2023-04-26T11:06:49;101068.66;;;10.73;50.95
829;BME280;396;52.558;13.188;2023-04-26T11:09:32;101071.69;;;10.90;50.43
829;BME280;396;52.558;13.188;2023-04-26T11:12:13;101069.50;;;11.11;49.68
829;BME280;396;52.558;13.188;2023-04-26T11:14:43;101066.06;;;11.05;49.84
829;BME280;396;52.558;13.188;2023-04-26T11:17:10;101064.22;;;11.01;49.70
829;BME280;396;52.558;13.188;2023-04-26T11:19:39;101063.72;;;10.99;49.95
829;BME280;396;52.558;13.188;2023-04-26T11:22:06;101053.97;;;10.98;50.87
829;BME280;396;52.558;13.188;2023-04-26T11:24:34;101056.56;;;11.08;49.81
829;BME280;396;52.558;13.188;2023-04-26T11:27:08;101073.63;;;11.08;48.42
829;BME280;396;52.558;13.188;2023-04-26T11:29:35;101070.69;;;11.05;48.27
829;BME280;396;52.558;13.188;2023-04-26T11:32:04;101066.56;;;10.89;48.85
829;BME280;396;52.558;13.188;2023-04-26T11:34:31;101066.19;;;10.76;50.74
829;BME280;396;52.558;13.188;2023-04-26T11:36:58;101072.97;;;10.74;49.18
829;BME280;396;52.558;13.188;2023-04-26T11:39:26;101063.47;;;10.76;49.49
829;BME280;396;52.558;13.188;2023-04-26T11:41:55;101073.97;;;11.02;50.08
829;BME280;396;52.558;13.188;2023-04-26T11:44:30;101074.72;;;11.26;47.83
829;BME280;396;52.558;13.188;2023-04-26T11:46:57;101066.88;;;11.44;46.47
829;BME280;396;52.558;13.188;2023-04-26T11:49:26;101073.03;;;12.01;46.15
829;BME280;396;52.558;13.188;2023-04-26T11:51:53;101069.25;;;12.84;46.36
829;BME280;396;52.558;13.188;2023-04-26T11:54:30;101076.22;;;13.27;43.72
829;BME280;396;52.558;13.188;2023-04-26T11:56:58;101075.59;;;12.52;44.92
829;BME280;396;52.558;13.188;2023-04-26T11:59:26;101078.78;;;12.13;46.29
829;BME280;396;52.558;13.188;2023-04-26T12:01:54;101076.22;;;11.70;47.48
829;BME280;396;52.558;13.188;2023-04-26T12:04:27;101078.75;;;11.48;47.68
829;BME280;396;52.558;13.188;2023-04-26T12:06:55;101072.50;;;11.28;48.49
829;BME280;396;52.558;13.188;2023-04-26T12:09:22;101074.41;;;11.09;49.64
829;BME280;396;52.558;13.188;2023-04-26T12:11:53;101075.56;;;10.84;50.11
829;BME280;396;52.558;13.188;2023-04-26T12:14:22;101083.25;;;10.53;51.35
829;BME280;396;52.558;13.188;2023-04-26T12:16:48;101082.56;;;10.42;52.32
829;BME280;396;52.558;13.188;2023-04-26T12:19:15;101084.97;;;10.44;52.21
829;BME280;396;52.558;13.188;2023-04-26T12:21:45;101083.25;;;10.53;52.44
829;BME280;396;52.558;13.188;2023-04-26T12:24:22;101077.13;;;10.66;53.05
829;BME280;396;52.558;13.188;2023-04-26T12:26:49;101083.28;;;10.96;50.73
829;BME280;396;52.558;13.188;2023-04-26T12:29:16;101077.13;;;11.09;51.13
829;BME280;396;52.558;13.188;2023-04-26T12:31:43;101084.25;;;11.94;48.76
829;BME280;396;52.558;13.188;2023-04-26T12:34:10;101090.19;;;12.56;46.68
829;BME280;396;52.558;13.188;2023-04-26T12:36:39;101088.06;;;13.45;44.40
829;BME280;396;52.558;13.188;2023-04-26T12:39:08;101093.00;;;14.41;42.63
829;BME280;396;52.558;13.188;2023-04-26T12:41:40;101068.69;;;15.19;41.25
829;BME280;396;52.558;13.188;2023-04-26T13:28:02;101077.63;;;11.11;44.86
829;BME280;396;52.558;13.188;2023-04-26T13:30:41;101077.78;;;11.20;45.71
829;BME280;396;52.558;13.188;2023-04-26T13:42:12;101087.97;;;12.86;41.85
829;BME280;396;52.558;13.188;2023-04-26T13:44:39;101081.31;;;12.51;41.72
829;BME280;396;52.558;13.188;2023-04-26T13:47:06;101075.69;;;12.33;42.75
829;BME280;396;52.558;13.188;2023-04-26T13:49:34;101088.22;;;12.16;43.45
829;BME280;396;52.558;13.188;2023-04-26T13:52:01;101081.84;;;11.93;44.13
829;BME280;396;52.558;13.188;2023-04-26T13:54:27;101078.94;;;11.70;44.94
829;BME280;396;52.558;13.188;2023-04-26T13:56:54;101086.06;;;11.66;45.59
829;BME280;396;52.558;13.188;2023-04-26T13:59:23;101093.22;;;11.95;46.25
829;BME280;396;52.558;13.188;2023-04-26T14:01:52;101092.31;;;12.46;45.66
829;BME280;396;52.558;13.188;2023-04-26T14:04:20;101102.22;;;13.33;44.40
829;BME280;396;52.558;13.188;2023-04-26T14:06:47;101092.88;;;13.93;42.19
829;BME280;396;52.558;13.188;2023-04-26T14:09:14;101087.59;;;14.19;42.54
829;BME280;396;52.558;13.188;2023-04-26T14:11:40;101095.47;;;13.98;42.01
829;BME280;396;52.558;13.188;2023-04-26T14:14:07;101091.03;;;14.02;41.85
829;BME280;396;52.558;13.188;2023-04-26T14:16:35;101099.47;;;13.92;42.38
829;BME280;396;52.558;13.188;2023-04-26T14:19:02;101099.81;;;13.76;42.04
829;BME280;396;52.558;13.188;2023-04-26T14:21:29;101091.28;;;13.47;41.31
829;BME280;396;52.558;13.188;2023-04-26T14:23:55;101087.78;;;13.46;41.98
829;BME280;396;52.558;13.188;2023-04-26T14:26:23;101092.13;;;13.33;43.09
829;BME280;396;52.558;13.188;2023-04-26T14:28:51;101091.63;;;13.18;44.29
829;BME280;396;52.558;13.188;2023-04-26T14:31:18;101096.41;;;12.98;44.23
829;BME280;396;52.558;13.188;2023-04-26T14:33:46;101085.94;;;12.78;44.84
829;BME280;396;52.558;13.188;2023-04-26T14:36:12;101082.66;;;12.67;45.29
829;BME280;396;52.558;13.188;2023-04-26T14:38:40;101093.72;;;12.71;44.70
829;BME280;396;52.558;13.188;2023-04-26T14:41:08;101085.03;;;12.82;43.68
829;BME280;396;52.558;13.188;2023-04-26T14:43:35;101083.31;;;13.00;42.91
829;BME280;396;52.558;13.188;2023-04-26T14:46:02;101082.78;;;13.12;42.42
829;BME280;396;52.558;13.188;2023-04-26T14:48:28;101090.75;;;13.08;42.47
829;BME280;396;52.558;13.188;2023-04-26T14:50:58;101090.84;;;13.17;41.99
829;BME280;396;52.558;13.188;2023-04-26T14:53:26;101094.78;;;13.11;41.99
829;BME280;396;52.558;13.188;2023-04-26T14:55:54;101097.13;;;12.90;42.80
829;BME280;396;52.558;13.188;2023-04-26T14:58:20;101101.22;;;13.01;42.48
829;BME280;396;52.558;13.188;2023-04-26T15:00:47;101085.53;;;12.98;42.27
829;BME280;396;52.558;13.188;2023-04-26T15:03:14;101083.03;;;12.60;43.51
829;BME280;396;52.558;13.188;2023-04-26T15:05:41;101084.34;;;12.77;44.32
829;BME280;396;52.558;13.188;2023-04-26T15:08:09;101089.44;;;12.92;43.83
829;BME280;396;52.558;13.188;2023-04-26T15:10:35;101088.16;;;12.90;44.05
829;BME280;396;52.558;13.188;2023-04-26T15:13:02;101100.75;;;12.99;42.76
829;BME280;396;52.558;13.188;2023-04-26T15:15:29;101088.66;;;12.92;42.14
829;BME280;396;52.558;13.188;2023-04-26T15:17:56;101085.94;;;12.92;42.98
829;BME280;396;52.558;13.188;2023-04-26T15:20:22;101101.84;;;12.98;42.62
829;BME280;396;52.558;13.188;2023-04-26T15:22:49;101085.94;;;12.92;42.38
829;BME280;396;52.558;13.188;2023-04-26T15:25:18;101087.97;;;12.72;43.22
829;BME280;396;52.558;13.188;2023-04-26T15:27:44;101090.38;;;12.60;42.40
829;BME280;396;52.558;13.188;2023-04-26T15:30:11;101086.66;;;12.56;42.65